Time,TemperatureF,DewpointF,PressureIn,WindDirection,WindDirectionDegrees,WindSpeedMPH,WindSpeedGustMPH,Humidity,HourlyPrecipIn,Conditions,Clouds,dailyrainin,SolarRadiationWatts/m^2,SoftwareType,DateUTC
2013-07-27 00:02:00,61.0,61.0,-100.00,NNW,337,0.0,2.0,99,0.01,,,2.15,0.000000,,2013-07-27 04:02:00,
2013-07-27 00:12:00,61.0,61.0,-100.00,NNW,337,0.0,2.0,99,0.01,,,2.15,0.000000,,2013-07-27 04:12:00,
2013-07-27 00:22:00,61.0,61.0,-100.00,NNW,337,0.0,2.0,99,0.01,,,2.15,0.000000,,2013-07-27 04:22:00,
2013-07-27 00:32:00,61.0,61.0,-100.00,NNW,337,0.0,2.0,99,0.01,,,2.15,0.000000,,2013-07-27 04:32:00,
2013-07-27 01:02:00,60.0,59.0,-100.00,NNW,333,0.0,11.0,98,0.00,,,2.15,0.000000,,2013-07-27 05:02:00,
2013-07-27 01:12:00,60.0,59.0,-100.00,NNW,333,0.0,11.0,98,0.00,,,2.15,0.000000,,2013-07-27 05:12:00,
2013-07-27 01:22:00,60.0,59.0,-100.00,NNW,333,0.0,11.0,98,0.00,,,2.15,0.000000,,2013-07-27 05:22:00,
2013-07-27 01:33:00,60.0,59.0,-100.00,NNW,333,0.0,11.0,98,0.00,,,2.15,0.000000,,2013-07-27 05:33:00,
2013-07-27 02:03:00,59.0,58.0,-100.00,NW,316,0.0,10.0,98,0.00,,,2.14,0.000000,,2013-07-27 06:03:00,
2013-07-27 02:12:00,59.0,58.0,-100.00,NW,316,0.0,10.0,98,0.00,,,2.14,0.000000,,2013-07-27 06:12:00,
2013-07-27 02:22:00,59.0,58.0,-100.00,NW,316,0.0,10.0,98,0.00,,,2.14,0.000000,,2013-07-27 06:22:00,
2013-07-27 02:33:00,59.0,58.0,-100.00,NW,316,0.0,10.0,98,0.00,,,2.14,0.000000,,2013-07-27 06:33:00,
2013-07-27 03:02:00,60.0,59.0,-100.00,NW,311,1.0,11.0,98,0.01,,,2.10,0.000000,,2013-07-27 07:02:00,
2013-07-27 03:12:00,60.0,59.0,-100.00,NW,311,1.0,11.0,98,0.01,,,2.10,0.000000,,2013-07-27 07:12:00,
2013-07-27 03:22:00,60.0,59.0,-100.00,NW,311,1.0,11.0,98,0.01,,,2.10,0.000000,,2013-07-27 07:22:00,
2013-07-27 03:34:00,60.0,59.0,-100.00,NW,311,1.0,11.0,98,0.01,,,2.10,0.000000,,2013-07-27 07:34:00,
2013-07-27 04:02:00,61.0,60.0,-100.00,WNW,297,1.0,11.0,97,0.00,,,2.04,0.000000,,2013-07-27 08:02:00,
2013-07-27 04:12:00,61.0,60.0,-100.00,WNW,297,1.0,11.0,97,0.00,,,2.04,0.000000,,2013-07-27 08:12:00,
2013-07-27 04:22:00,61.0,60.0,-100.00,WNW,297,1.0,11.0,97,0.00,,,2.04,0.000000,,2013-07-27 08:22:00,
2013-07-27 04:32:00,61.0,60.0,-100.00,WNW,297,1.0,11.0,97,0.00,,,2.04,0.000000,,2013-07-27 08:32:00,
2013-07-27 05:02:00,61.0,60.0,-100.00,WSW,237,0.0,0.0,98,0.00,,,1.97,0.000000,,2013-07-27 09:02:00,
2013-07-27 05:12:00,61.0,60.0,-100.00,WSW,237,0.0,0.0,98,0.00,,,1.97,0.000000,,2013-07-27 09:12:00,
2013-07-27 05:22:00,61.0,60.0,-100.00,WSW,237,0.0,0.0,98,0.00,,,1.97,0.000000,,2013-07-27 09:22:00,
2013-07-27 05:33:00,61.0,60.0,-100.00,WSW,237,0.0,0.0,98,0.00,,,1.97,0.000000,,2013-07-27 09:33:00,
2013-07-27 06:02:00,61.0,60.0,-100.00,SW,229,0.0,5.0,97,0.00,,,1.88,0.000000,,2013-07-27 10:02:00,
2013-07-27 06:12:00,61.0,60.0,-100.00,SW,229,0.0,5.0,97,0.00,,,1.88,0.000000,,2013-07-27 10:12:00,
2013-07-27 06:22:00,61.0,60.0,-100.00,SW,229,0.0,5.0,97,0.00,,,1.88,0.000000,,2013-07-27 10:22:00,
2013-07-27 06:32:00,61.0,60.0,-100.00,SW,229,0.0,5.0,97,0.00,,,1.88,0.000000,,2013-07-27 10:32:00,
2013-07-27 07:02:00,61.0,60.0,-100.00,SW,228,0.0,5.0,96,0.00,,,1.76,15.000000,,2013-07-27 11:02:00,
2013-07-27 07:12:00,61.0,60.0,-100.00,SW,228,0.0,5.0,96,0.00,,,1.76,15.000000,,2013-07-27 11:12:00,
2013-07-27 07:22:00,61.0,60.0,-100.00,SW,228,0.0,5.0,96,0.00,,,1.76,15.000000,,2013-07-27 11:22:00,
2013-07-27 07:32:00,61.0,60.0,-100.00,SW,228,0.0,5.0,96,0.00,,,1.76,15.000000,,2013-07-27 11:32:00,
2013-07-27 08:03:00,62.0,61.0,-100.00,SW,231,0.0,9.0,96,0.00,,,1.67,86.000000,,2013-07-27 12:03:00,
2013-07-27 08:13:00,62.0,61.0,-100.00,SW,231,0.0,9.0,96,0.00,,,1.67,86.000000,,2013-07-27 12:13:00,
2013-07-27 08:22:00,62.0,61.0,-100.00,SW,231,0.0,9.0,96,0.00,,,1.67,86.000000,,2013-07-27 12:22:00,
2013-07-27 08:33:00,62.0,61.0,-100.00,SW,231,0.0,9.0,96,0.00,,,1.67,86.000000,,2013-07-27 12:33:00,
2013-07-27 09:12:00,69.0,64.0,-100.00,WSW,243,0.0,0.0,84,0.00,,,1.62,353.000000,,2013-07-27 13:12:00,
2013-07-27 09:22:00,69.0,64.0,-100.00,WSW,243,0.0,0.0,84,0.00,,,1.62,353.000000,,2013-07-27 13:22:00,
2013-07-27 09:32:00,69.0,64.0,-100.00,WSW,243,0.0,0.0,84,0.00,,,1.62,353.000000,,2013-07-27 13:32:00,
2013-07-27 10:02:00,70.0,63.0,-100.00,WNW,295,0.0,0.0,78,0.00,,,1.55,453.000000,,2013-07-27 14:02:00,
2013-07-27 10:12:00,70.0,63.0,-100.00,WNW,295,0.0,0.0,78,0.00,,,1.55,453.000000,,2013-07-27 14:12:00,
2013-07-27 10:22:00,70.0,63.0,-100.00,WNW,295,0.0,0.0,78,0.00,,,1.55,453.000000,,2013-07-27 14:22:00,
2013-07-27 10:33:00,70.0,63.0,-100.00,WNW,295,0.0,0.0,78,0.00,,,1.55,453.000000,,2013-07-27 14:33:00,
2013-07-27 13:13:00,74.0,64.0,-100.00,West,268,0.0,0.0,71,-99.99,,,0.81,983.000000,,2013-07-27 17:13:00,
2013-07-27 13:32:00,74.0,64.0,-100.00,West,268,0.0,0.0,71,-99.99,,,0.81,983.000000,,2013-07-27 17:32:00,
2013-07-27 14:03:00,72.0,62.0,-100.00,WSW,254,0.0,0.0,72,0.00,,,0.31,995.000000,,2013-07-27 18:03:00,
2013-07-27 14:12:00,72.0,62.0,-100.00,WSW,254,0.0,0.0,72,0.00,,,0.31,995.000000,,2013-07-27 18:12:00,
2013-07-27 14:22:00,72.0,62.0,-100.00,WSW,254,0.0,0.0,72,0.00,,,0.31,995.000000,,2013-07-27 18:22:00,
2013-07-27 14:33:00,72.0,62.0,-100.00,WSW,254,0.0,0.0,72,0.00,,,0.31,995.000000,,2013-07-27 18:33:00,
2013-07-27 15:02:00,72.0,62.0,-100.00,WSW,258,0.0,0.0,72,0.00,,,0.11,953.000000,,2013-07-27 19:02:00,
2013-07-27 15:12:00,72.0,62.0,-100.00,WSW,258,0.0,0.0,72,0.00,,,0.11,953.000000,,2013-07-27 19:12:00,
2013-07-27 15:23:00,72.0,62.0,-100.00,WSW,258,0.0,0.0,72,0.00,,,0.11,953.000000,,2013-07-27 19:23:00,
2013-07-27 15:32:00,72.0,62.0,-100.00,WSW,258,0.0,0.0,72,0.00,,,0.11,953.000000,,2013-07-27 19:32:00,
2013-07-27 16:02:00,72.0,62.0,-100.00,WSW,247,0.0,0.0,72,0.00,,,0.08,858.000000,,2013-07-27 20:02:00,
2013-07-27 16:12:00,72.0,62.0,-100.00,WSW,247,0.0,0.0,72,0.00,,,0.08,858.000000,,2013-07-27 20:12:00,
2013-07-27 16:23:00,72.0,62.0,-100.00,WSW,247,0.0,0.0,72,0.00,,,0.08,858.000000,,2013-07-27 20:23:00,
2013-07-27 16:32:00,72.0,62.0,-100.00,WSW,247,0.0,0.0,72,0.00,,,0.08,858.000000,,2013-07-27 20:32:00,
2013-07-27 17:03:00,73.0,63.0,-100.00,WSW,240,0.0,0.0,70,0.00,,,0.08,713.000000,,2013-07-27 21:03:00,
2013-07-27 17:12:00,73.0,63.0,-100.00,WSW,240,0.0,0.0,70,0.00,,,0.08,713.000000,,2013-07-27 21:12:00,
2013-07-27 17:23:00,73.0,63.0,-100.00,WSW,240,0.0,0.0,70,0.00,,,0.08,713.000000,,2013-07-27 21:23:00,
2013-07-27 17:33:00,73.0,63.0,-100.00,WSW,240,0.0,0.0,70,0.00,,,0.08,713.000000,,2013-07-27 21:33:00,
2013-07-27 18:02:00,72.0,62.0,-100.00,SW,218,0.0,2.0,70,0.00,,,0.08,538.000000,,2013-07-27 22:02:00,
2013-07-27 18:13:00,72.0,62.0,-100.00,SW,218,0.0,2.0,70,0.00,,,0.08,538.000000,,2013-07-27 22:13:00,
2013-07-27 18:22:00,72.0,62.0,-100.00,SW,218,0.0,2.0,70,0.00,,,0.08,538.000000,,2013-07-27 22:22:00,
2013-07-27 18:33:00,72.0,62.0,-100.00,SW,218,0.0,2.0,70,0.00,,,0.08,538.000000,,2013-07-27 22:33:00,
2013-07-27 19:02:00,69.0,61.0,-100.00,SW,217,1.0,10.0,76,0.00,,,0.08,325.000000,,2013-07-27 23:02:00,
2013-07-27 19:12:00,69.0,61.0,-100.00,SW,217,1.0,10.0,76,0.00,,,0.08,325.000000,,2013-07-27 23:12:00,
2013-07-27 19:22:00,69.0,61.0,-100.00,SW,217,1.0,10.0,76,0.00,,,0.08,325.000000,,2013-07-27 23:22:00,
2013-07-27 19:32:00,69.0,61.0,-100.00,SW,217,1.0,10.0,76,0.00,,,0.08,325.000000,,2013-07-27 23:32:00,
2013-07-27 20:02:00,65.0,61.0,-100.00,SW,217,0.0,0.0,87,0.00,,,0.08,28.000000,,2013-07-28 00:02:00,
2013-07-27 20:12:00,65.0,61.0,-100.00,SW,217,0.0,0.0,87,0.00,,,0.08,28.000000,,2013-07-28 00:12:00,
2013-07-27 20:23:00,65.0,61.0,-100.00,SW,217,0.0,0.0,87,0.00,,,0.08,28.000000,,2013-07-28 00:23:00,
2013-07-27 20:32:00,65.0,61.0,-100.00,SW,217,0.0,0.0,87,0.00,,,0.08,28.000000,,2013-07-28 00:32:00,
2013-07-27 21:02:00,65.0,60.0,-100.00,SW,219,0.0,0.0,85,0.00,,,0.04,7.000000,,2013-07-28 01:02:00,
2013-07-27 21:12:00,65.0,60.0,-100.00,SW,219,0.0,0.0,85,0.00,,,0.04,7.000000,,2013-07-28 01:12:00,
2013-07-27 21:23:00,65.0,60.0,-100.00,SW,219,0.0,0.0,85,0.00,,,0.04,7.000000,,2013-07-28 01:23:00,
2013-07-27 21:32:00,65.0,60.0,-100.00,SW,219,0.0,0.0,85,0.00,,,0.04,7.000000,,2013-07-28 01:32:00,
2013-07-27 22:03:00,65.0,63.0,-100.00,WSW,238,0.0,1.0,93,0.00,,,0.03,0.000000,,2013-07-28 02:03:00,
2013-07-27 22:12:00,65.0,63.0,-100.00,WSW,238,0.0,1.0,93,0.00,,,0.03,0.000000,,2013-07-28 02:12:00,
2013-07-27 22:23:00,65.0,63.0,-100.00,WSW,238,0.0,1.0,93,0.00,,,0.03,0.000000,,2013-07-28 02:23:00,
2013-07-27 22:32:00,65.0,63.0,-100.00,WSW,238,0.0,1.0,93,0.00,,,0.03,0.000000,,2013-07-28 02:32:00,
2013-07-27 23:03:00,64.0,63.0,-100.00,WSW,238,0.0,0.0,96,0.00,,,0.02,0.000000,,2013-07-28 03:03:00,
2013-07-27 23:12:00,64.0,63.0,-100.00,WSW,238,0.0,0.0,96,0.00,,,0.02,0.000000,,2013-07-28 03:12:00,
2013-07-27 23:22:00,64.0,63.0,-100.00,WSW,238,0.0,0.0,96,0.00,,,0.02,0.000000,,2013-07-28 03:22:00,
2013-07-27 23:32:00,64.0,63.0,-100.00,WSW,238,0.0,0.0,96,0.00,,,0.02,0.000000,,2013-07-28 03:32:00,